.
WxDataArchive / Data Records for 2007-05-09
2007-05-08 May 2007 2007-05-10

Data Records for Wednesday, 09 May 2007

Time	Temp	Chill	HIndex	Humid	Dewpt	 Wind 	HiWind	WindDir	Rain 	Barom 
-----	----	-----	------	-----	-----	------	------	-------	-----	----- 
00:00	65.5	65.5	65.5	97	64.6	0	0	---	0.00	29.924 
00:05	65.3	65.3	65.3	97	64.4	0	0	---	0.00	29.922 
00:10	65.3	65.3	65.3	97	64.4	0	0	---	0.00	29.921 
00:15	65.3	65.3	65.3	97	64.4	0	0	---	0.00	29.920 
00:20	65.3	65.3	65.3	97	64.4	0	0	---	0.00	29.918 
00:25	65.3	65.3	65.3	97	64.4	0	0	---	0.00	29.914 
00:30	65.3	65.3	65.3	97	64.4	0	0	---	0.00	29.913 
00:35	65.3	65.3	65.3	97	64.4	0	1	248	0.00	29.911 
00:40	65.2	65.2	65.2	97	64.3	0	0	---	0.00	29.911 
00:45	65.0	65.0	65.0	97	64.1	0	0	---	0.00	29.914 
00:50	64.8	64.8	64.8	97	63.9	0	0	---	0.00	29.913 
00:55	64.7	64.7	64.7	97	63.8	0	0	---	0.00	29.913 
01:00	64.7	64.7	64.7	97	63.8	0	0	---	0.00	29.912 
01:05	64.7	64.7	64.7	97	63.8	0	0	---	0.00	29.914 
01:10	64.5	64.5	64.5	97	63.6	0	0	---	0.00	29.913 
01:15	64.3	64.3	64.3	97	63.4	0	0	---	0.00	29.913 
01:20	64.3	64.3	64.3	97	63.4	0	0	---	0.00	29.911 
01:25	64.3	64.3	64.3	98	63.7	0	0	---	0.00	29.907 
01:30	64.5	64.5	64.5	98	63.9	0	1	248	0.00	29.903 
01:35	64.5	64.5	64.5	98	63.9	0	1	248	0.00	29.904 
01:40	64.7	64.7	64.7	98	64.1	0	1	248	0.00	29.903 
01:45	64.7	64.7	64.7	98	64.1	0	0	---	0.00	29.901 
01:50	64.5	64.5	64.5	98	63.9	0	0	---	0.00	29.899 
01:55	64.3	64.3	64.3	98	63.7	0	0	---	0.00	29.898 
02:00	64.0	64.0	64.0	98	63.4	0	0	---	0.00	29.896 
02:05	64.0	64.0	64.0	98	63.4	0	1	248	0.00	29.896 
02:10	63.9	63.9	63.9	98	63.3	0	0	---	0.00	29.895 
02:15	63.7	63.7	63.7	98	63.1	0	0	---	0.00	29.895 
02:20	63.5	63.5	63.5	98	62.9	0	0	---	0.00	29.894 
02:25	63.4	63.4	63.4	98	62.8	0	0	---	0.00	29.893 
02:30	63.2	63.2	63.2	98	62.6	0	0	---	0.00	29.894 
02:35	63.1	63.1	63.1	98	62.5	0	0	---	0.00	29.898 
02:40	63.1	63.1	63.1	98	62.5	0	0	---	0.00	29.898 
02:45	63.1	63.1	63.1	98	62.5	0	0	---	0.00	29.898 
02:50	62.9	62.9	62.9	98	62.3	0	0	---	0.00	29.897 
02:55	62.9	62.9	62.9	98	62.3	0	0	---	0.00	29.899 
03:00	62.9	62.9	62.9	98	62.3	0	0	---	0.00	29.899 
03:05	62.7	62.7	62.7	98	62.1	0	0	---	0.00	29.902 
03:10	62.7	62.7	62.7	98	62.1	0	0	---	0.00	29.903 
03:15	62.9	62.9	62.9	98	62.3	0	0	---	0.00	29.906 
03:20	63.2	63.2	63.2	98	62.6	0	0	---	0.00	29.906 
03:25	63.5	63.5	63.5	98	62.9	0	1	248	0.00	29.904 
03:30	63.7	63.7	63.7	98	63.1	0	1	248	0.00	29.899 
03:35	63.7	63.7	63.7	98	63.1	0	1	248	0.00	29.896 
03:40	63.7	63.7	63.7	98	63.1	0	1	248	0.00	29.893 
03:45	63.5	63.5	63.5	98	62.9	0	1	248	0.00	29.893 
03:50	63.5	63.5	63.5	98	62.9	0	1	248	0.00	29.892 
03:55	63.5	63.5	63.5	97	62.6	0	1	248	0.00	29.893 
04:00	63.4	63.4	63.4	97	62.5	0	0	---	0.00	29.895 
04:05	63.2	63.2	63.2	97	62.3	0	2	202	0.00	29.894 
04:10	63.2	63.2	63.2	96	62.0	0	1	202	0.00	29.894 
04:15	63.2	63.2	63.2	95	61.7	0	0	---	0.00	29.896 
04:20	63.2	63.2	63.2	95	61.7	0	0	---	0.00	29.896 
04:25	63.1	63.1	63.1	95	61.6	0	1	202	0.00	29.896 
04:30	63.1	63.1	63.1	94	61.3	0	2	158	0.00	29.894 
04:35	63.1	63.1	63.1	93	61.0	0	2	135	0.00	29.894 
04:40	63.2	63.2	63.2	92	60.8	0	1	135	0.00	29.893 
04:45	63.4	63.4	63.4	91	60.7	0	1	135	0.00	29.894 
04:50	63.4	63.4	63.4	90	60.4	0	1	135	0.00	29.893 
04:55	63.4	63.4	63.4	90	60.4	0	0	---	0.00	29.894 
05:00	63.4	63.4	63.4	91	60.7	0	0	---	0.00	29.895 
05:05	63.2	63.2	63.2	91	60.5	0	0	---	0.00	29.905 
05:10	63.2	63.2	63.2	90	60.2	0	1	135	0.00	29.902 
05:15	63.2	63.2	63.2	90	60.2	0	1	135	0.00	29.903 
05:20	63.2	63.2	63.2	90	60.2	0	1	135	0.00	29.905 
05:25	63.2	63.2	63.2	91	60.5	0	0	---	0.00	29.903 
05:30	63.1	63.1	63.1	91	60.4	0	0	---	0.00	29.903 
05:35	62.9	62.9	62.9	91	60.2	0	0	---	0.00	29.903 
05:40	62.9	62.9	62.9	91	60.2	0	0	---	0.00	29.903 
05:45	63.1	63.1	63.1	91	60.4	0	1	135	0.00	29.904 
05:50	63.1	63.1	63.1	91	60.4	0	0	---	0.00	29.905 
05:55	63.2	63.2	63.2	91	60.5	0	1	135	0.00	29.908 
06:00	63.4	63.4	63.4	91	60.7	0	1	135	0.00	29.907 
06:05	63.7	63.7	63.7	90	60.7	0	3	270	0.00	29.916 
06:10	63.9	63.9	63.9	90	60.9	0	1	270	0.00	29.918 
06:15	63.9	63.9	63.9	90	60.9	0	1	270	0.00	29.917 
06:20	64.0	64.0	64.0	89	60.7	0	3	270	0.00	29.916 
06:25	64.3	64.3	64.3	89	61.0	0	2	270	0.00	29.915 
06:30	64.3	64.3	64.3	88	60.7	0	2	270	0.00	29.914 
06:35	64.5	64.5	64.5	88	60.9	0	1	270	0.00	29.917 
06:40	64.5	64.5	64.5	87	60.5	0	2	270	0.00	29.917 
06:45	64.7	64.7	64.7	88	61.1	0	1	270	0.00	29.918 
06:50	64.7	64.7	64.7	88	61.1	0	1	270	0.00	29.919 
06:55	64.8	64.8	64.8	88	61.2	0	0	---	0.00	29.919 
07:00	65.2	65.2	65.2	88	61.6	0	1	270	0.00	29.920 
07:05	65.5	65.5	65.5	88	61.8	0	1	270	0.00	29.918 
07:10	66.1	66.1	66.1	86	61.8	0	1	270	0.00	29.918 
07:15	66.4	66.4	66.4	85	61.7	0	1	270	0.00	29.919 
07:20	66.6	66.6	66.6	84	61.6	0	1	270	0.00	29.917 
07:25	66.8	66.8	66.8	84	61.8	0	1	270	0.00	29.916 
07:30	66.8	66.8	66.8	84	61.8	0	1	270	0.00	29.917 
07:35	66.9	66.9	66.9	85	62.2	0	0	---	0.00	29.917 
07:40	67.4	67.4	67.4	86	63.1	0	1	270	0.00	29.918 
07:45	67.9	67.9	67.9	83	62.5	0	1	270	0.00	29.916 
07:50	68.3	68.3	68.3	82	62.6	0	2	270	0.00	29.916 
07:55	68.4	68.4	68.4	81	62.3	0	2	270	0.00	29.917 
08:00	68.3	68.3	68.3	79	61.5	1	4	248	0.00	29.920 
08:05	68.3	68.3	68.3	80	61.9	1	3	248	0.00	29.923 
08:10	68.1	68.1	68.1	79	61.3	2	4	248	0.00	29.928 
08:15	68.1	68.1	68.1	79	61.3	1	3	225	0.00	29.933 
08:20	67.9	67.9	67.9	79	61.1	1	3	248	0.00	29.933 
08:25	67.9	67.9	67.9	79	61.1	2	5	248	0.00	29.933 
08:30	67.6	67.6	67.6	83	62.2	2	5	248	0.02	29.931 
08:35	66.8	66.8	66.8	87	62.8	0	1	248	0.02	29.921 
08:40	66.3	66.3	66.3	88	62.6	0	1	248	0.00	29.925 
08:45	65.8	65.8	65.8	90	62.8	0	1	248	0.01	29.925 
08:50	65.6	65.6	65.6	91	62.9	0	1	248	0.01	29.925 
08:55	65.5	65.5	65.5	92	63.1	0	1	248	0.00	29.920 
09:00	65.5	65.5	65.5	93	63.4	0	3	248	0.00	29.917 
09:05	65.5	65.5	65.5	93	63.4	0	0	---	0.00	29.914 
09:10	65.6	65.6	65.6	94	63.8	0	1	202	0.00	29.914 
09:15	65.8	65.8	65.8	94	64.0	0	1	202	0.00	29.913 
09:20	65.8	65.8	65.8	94	64.0	0	2	202	0.00	29.915 
09:25	65.8	65.8	65.8	94	64.0	1	2	202	0.00	29.915 
09:30	66.0	66.0	66.0	94	64.2	0	2	202	0.00	29.910 
09:35	66.3	66.3	66.3	95	64.8	0	2	202	0.00	29.912 
09:40	66.6	66.6	66.6	95	65.1	1	3	225	0.00	29.914 
09:45	66.9	66.9	66.9	94	65.1	1	2	225	0.00	29.918 
09:50	66.9	66.9	66.9	94	65.1	1	3	248	0.00	29.919 
09:55	66.9	66.9	66.9	93	64.8	1	2	248	0.00	29.919 
10:00	67.1	67.1	67.1	92	64.7	1	3	248	0.00	29.919 
10:05	67.3	67.3	67.3	92	64.9	0	4	338	0.00	29.919 
10:10	67.6	67.6	67.6	92	65.2	2	5	248	0.00	29.920 
10:15	67.9	67.9	67.9	91	65.2	1	3	248	0.00	29.922 
10:20	68.1	68.1	68.1	90	65.0	1	3	248	0.00	29.919 
10:25	68.3	68.3	68.3	89	64.9	1	2	248	0.00	29.919 
10:30	68.4	68.4	68.4	88	64.7	1	4	292	0.00	29.920 
10:35	68.8	68.8	68.8	88	65.1	0	2	248	0.00	29.919 
10:40	69.1	69.1	69.1	88	65.4	1	2	248	0.00	29.919 
10:45	69.4	69.4	69.4	87	65.4	0	2	248	0.00	29.919 
10:50	69.8	69.8	69.8	86	65.4	0	2	248	0.00	29.917 
10:55	69.9	69.9	69.9	85	65.2	1	3	248	0.00	29.919 
11:00	69.9	69.9	69.9	85	65.2	1	2	248	0.00	29.917 
11:05	70.1	70.1	70.1	85	65.4	1	4	225	0.00	29.920 
11:10	70.3	70.3	70.3	86	65.9	0	3	225	0.00	29.919 
11:15	70.4	70.4	70.4	86	66.0	0	2	225	0.00	29.918 
11:20	70.8	70.8	70.8	86	66.4	0	2	225	0.00	29.919 
11:25	70.9	70.9	70.9	85	66.2	0	3	248	0.00	29.918 
11:30	70.9	70.9	70.9	84	65.8	1	3	112	0.00	29.917 
11:35	70.9	70.9	70.9	84	65.8	1	2	90	0.00	29.915 
11:40	71.3	71.3	71.3	85	66.5	0	3	90	0.00	29.915 
11:45	71.6	71.6	71.6	85	66.8	0	2	248	0.00	29.914 
11:50	71.8	71.8	71.8	83	66.3	0	2	248	0.00	29.913 
11:55	72.0	72.0	72.0	83	66.5	0	3	248	0.00	29.913 
12:00	71.8	71.8	71.8	82	66.0	1	3	22	0.00	29.912 
12:05	71.8	71.8	71.8	82	66.0	1	3	90	0.00	29.914 
12:10	71.6	71.6	71.6	83	66.2	1	3	112	0.00	29.911 
12:15	71.5	71.5	71.5	83	66.1	1	2	112	0.00	29.905 
12:20	71.6	71.6	71.6	83	66.2	1	2	112	0.00	29.904 
12:25	72.0	72.0	72.0	83	66.5	0	2	90	0.00	29.906 
12:30	72.1	72.1	72.1	83	66.6	1	2	90	0.00	29.902 
12:35	72.5	72.5	72.5	81	66.3	1	5	90	0.00	29.899 
12:40	73.0	73.0	73.0	80	66.5	1	3	90	0.00	29.899 
12:45	73.3	73.3	73.3	80	66.7	1	3	90	0.00	29.899 
12:50	73.9	73.9	73.9	79	67.0	1	3	202	0.00	29.899 
12:55	74.2	74.2	74.2	80	67.6	0	2	0	0.00	29.899 
13:00	74.2	74.2	74.2	79	67.3	1	3	112	0.00	29.898 
13:05	74.0	74.0	74.0	79	67.1	1	2	112	0.00	29.899 
13:10	73.7	73.7	73.7	81	67.5	1	3	248	0.01	29.899 
13:15	73.3	73.3	73.3	83	67.8	1	3	248	0.01	29.898 
13:20	73.0	73.0	73.0	85	68.2	0	1	248	0.00	29.896 
13:25	73.0	73.0	73.0	88	69.2	0	2	248	0.00	29.893 
13:30	73.0	73.0	73.0	87	68.9	1	2	248	0.00	29.893 
13:35	73.2	73.2	73.2	88	69.4	0	2	248	0.00	29.893 
13:40	73.2	73.2	73.2	87	69.1	0	2	338	0.00	29.889 
13:45	73.0	73.0	73.0	87	68.9	1	2	338	0.00	29.887 
13:50	73.2	73.2	73.2	87	69.1	1	3	315	0.00	29.886 
13:55	73.3	73.3	73.3	86	68.8	1	2	270	0.00	29.886 
14:00	73.9	73.9	73.9	86	69.4	1	3	270	0.00	29.884 
14:05	74.4	74.4	74.4	83	68.9	1	4	270	0.00	29.885 
14:10	74.9	74.9	74.9	80	68.3	2	4	248	0.00	29.883 
14:15	75.4	75.4	76.9	72	65.7	2	5	248	0.00	29.883 
14:20	75.8	75.8	77.4	70	65.3	1	5	248	0.00	29.883 
14:25	75.4	75.4	77.3	67	63.7	3	6	248	0.00	29.884 
14:30	75.4	75.4	77.4	64	62.4	3	7	248	0.00	29.885 
14:35	75.4	75.4	77.4	64	62.4	2	5	270	0.00	29.884 
14:40	75.4	75.4	77.4	65	62.8	2	5	270	0.00	29.883 
14:45	75.4	75.4	77.3	66	63.2	1	4	248	0.00	29.883 
14:50	75.4	75.4	77.2	68	64.1	1	4	225	0.00	29.881 
14:55	75.6	75.6	77.4	67	63.9	1	3	315	0.00	29.879 
15:00	75.8	75.8	77.7	66	63.6	1	3	292	0.00	29.874 
15:05	75.6	75.6	77.5	66	63.4	2	4	338	0.00	29.874 
15:10	75.3	75.3	77.4	64	62.3	1	2	315	0.00	29.871 
15:15	75.1	75.1	77.2	64	62.1	1	3	315	0.00	29.870 
15:20	75.1	75.1	77.1	65	62.5	1	2	315	0.00	29.870 
15:25	75.3	75.3	77.2	66	63.1	1	4	270	0.00	29.869 
15:30	75.1	75.1	77.1	65	62.5	1	3	292	0.00	29.869 
15:35	75.3	75.3	77.2	66	63.1	1	3	292	0.00	29.869 
15:40	75.1	75.1	77.1	66	62.9	1	2	270	0.00	29.869 
15:45	74.9	74.9	74.9	67	63.2	1	3	270	0.00	29.869 
15:50	74.9	74.9	74.9	67	63.2	1	3	270	0.00	29.868 
15:55	74.7	74.7	74.7	68	63.4	1	2	270	0.00	29.868 
16:00	74.7	74.7	74.7	66	62.6	1	3	248	0.00	29.868 
16:05	74.7	74.7	74.7	67	63.0	1	3	248	0.00	29.868 
16:10	74.6	74.6	74.6	67	62.9	0	3	270	0.00	29.866 
16:15	74.4	74.4	74.4	67	62.7	1	3	270	0.00	29.865 
16:20	74.0	74.0	74.0	68	62.8	0	1	248	0.00	29.866 
16:25	73.9	73.9	73.9	69	63.1	0	1	248	0.00	29.869 
16:30	73.7	73.7	73.7	70	63.3	0	2	248	0.00	29.870 
16:35	73.7	73.7	73.7	70	63.3	1	2	248	0.00	29.871 
16:40	74.2	74.2	74.2	70	63.8	1	2	248	0.00	29.872 
16:45	74.2	74.2	74.2	68	62.9	1	3	315	0.00	29.874 
16:50	74.0	74.0	74.0	68	62.8	1	4	292	0.00	29.873 
16:55	73.9	73.9	73.9	67	62.2	1	3	270	0.00	29.874 
17:00	73.5	73.5	73.5	68	62.3	1	2	270	0.00	29.873 
17:05	73.5	73.5	73.5	68	62.3	0	2	270	0.00	29.873 
17:10	73.7	73.7	73.7	69	62.9	0	2	270	0.00	29.871 
17:15	73.9	73.9	73.9	67	62.2	0	2	270	0.00	29.870 
17:20	73.9	73.9	73.9	68	62.7	0	1	270	0.00	29.870 
17:25	73.9	73.9	73.9	67	62.2	0	1	270	0.00	29.875 
17:30	73.9	73.9	73.9	67	62.2	0	2	270	0.00	29.875 
17:35	73.9	73.9	73.9	67	62.2	0	2	270	0.00	29.875 
17:40	73.9	73.9	73.9	66	61.8	1	3	270	0.00	29.872 
17:45	73.7	73.7	73.7	65	61.2	0	1	270	0.00	29.871 
17:50	73.7	73.7	73.7	66	61.6	0	0	---	0.00	29.871 
17:55	73.7	73.7	73.7	67	62.0	0	2	270	0.00	29.870 
18:00	73.9	73.9	73.9	67	62.2	0	1	270	0.00	29.869 
18:05	74.0	74.0	74.0	66	61.9	0	1	270	0.00	29.867 
18:10	74.0	74.0	74.0	66	61.9	0	1	270	0.00	29.867 
18:15	73.9	73.9	73.9	66	61.8	0	1	270	0.00	29.867 
18:20	73.7	73.7	73.7	68	62.5	0	0	---	0.00	29.868 
18:25	73.5	73.5	73.5	73	64.3	0	2	270	0.00	29.867 
18:30	72.8	72.8	72.8	77	65.2	1	3	270	0.00	29.866 
18:35	72.3	72.3	72.3	78	65.0	0	2	270	0.00	29.864 
18:40	72.0	72.0	72.0	79	65.1	1	2	270	0.00	29.864 
18:45	71.6	71.6	71.6	79	64.7	0	2	270	0.00	29.861 
18:50	71.3	71.3	71.3	80	64.8	1	3	270	0.00	29.861 
18:55	71.1	71.1	71.1	81	65.0	1	2	270	0.00	29.860 
19:00	71.1	71.1	71.1	81	65.0	0	1	270	0.00	29.862 
19:05	70.9	70.9	70.9	81	64.8	0	1	270	0.00	29.860 
19:10	70.8	70.8	70.8	82	65.0	0	2	270	0.00	29.865 
19:15	70.6	70.6	70.6	82	64.8	0	1	270	0.00	29.859 
19:20	70.6	70.6	70.6	83	65.2	1	3	270	0.00	29.859 
19:25	70.4	70.4	70.4	82	64.6	0	1	270	0.00	29.864 
19:30	70.3	70.3	70.3	82	64.5	0	0	---	0.00	29.865 
19:35	70.3	70.3	70.3	84	65.2	0	0	---	0.02	29.864 
19:40	69.9	69.9	69.9	85	65.2	0	0	---	0.01	29.863 
19:45	69.8	69.8	69.8	87	65.7	0	0	---	0.00	29.862 
19:50	69.4	69.4	69.4	88	65.7	0	0	---	0.00	29.865 
19:55	69.3	69.3	69.3	89	65.9	0	0	---	0.00	29.864 
20:00	68.9	68.9	68.9	90	65.8	0	0	---	0.00	29.861 
20:05	68.6	68.6	68.6	91	65.9	0	0	---	0.00	29.866 
20:10	68.6	68.6	68.6	92	66.2	0	0	---	0.00	29.869 
20:15	68.4	68.4	68.4	92	66.0	0	0	---	0.00	29.870 
20:20	68.3	68.3	68.3	92	65.9	0	0	---	0.00	29.870 
20:25	68.1	68.1	68.1	92	65.7	0	0	---	0.00	29.870 
20:30	67.9	67.9	67.9	93	65.8	0	0	---	0.00	29.871 
20:35	67.8	67.8	67.8	93	65.7	0	0	---	0.00	29.871 
20:40	67.6	67.6	67.6	93	65.5	0	0	---	0.00	29.872 
20:45	67.4	67.4	67.4	93	65.3	0	0	---	0.00	29.875 
20:50	67.3	67.3	67.3	94	65.5	0	0	---	0.00	29.878 
20:55	67.1	67.1	67.1	94	65.3	0	0	---	0.00	29.880 
21:00	66.9	66.9	66.9	94	65.1	0	0	---	0.00	29.883 
21:05	66.8	66.8	66.8	94	65.0	0	0	---	0.00	29.882 
21:10	66.6	66.6	66.6	95	65.1	0	0	---	0.00	29.883 
21:15	66.4	66.4	66.4	95	64.9	0	0	---	0.00	29.883 
21:20	66.4	66.4	66.4	95	64.9	0	0	---	0.00	29.887 
21:25	66.3	66.3	66.3	95	64.8	0	0	---	0.00	29.887 
21:30	66.0	66.0	66.0	95	64.5	0	0	---	0.00	29.887 
21:35	65.8	65.8	65.8	95	64.3	0	0	---	0.00	29.887 
21:40	65.8	65.8	65.8	95	64.3	0	0	---	0.00	29.888 
21:45	65.6	65.6	65.6	95	64.1	0	0	---	0.00	29.887 
21:50	65.5	65.5	65.5	95	64.0	0	0	---	0.00	29.888 
21:55	65.3	65.3	65.3	95	63.8	0	0	---	0.00	29.888 
22:00	65.2	65.2	65.2	96	64.0	0	0	---	0.00	29.887 
22:05	65.0	65.0	65.0	96	63.8	0	0	---	0.00	29.884 
22:10	64.8	64.8	64.8	96	63.6	0	0	---	0.00	29.885 
22:15	64.7	64.7	64.7	96	63.5	0	0	---	0.00	29.884 
22:20	64.5	64.5	64.5	96	63.3	0	0	---	0.00	29.885 
22:25	64.3	64.3	64.3	96	63.1	0	0	---	0.00	29.886 
22:30	64.0	64.0	64.0	96	62.8	0	0	---	0.00	29.885 
22:35	63.9	63.9	63.9	96	62.7	0	0	---	0.00	29.884 
22:40	63.7	63.7	63.7	96	62.5	0	0	---	0.00	29.886 
22:45	63.5	63.5	63.5	96	62.3	0	0	---	0.00	29.886 
22:50	63.2	63.2	63.2	96	62.0	0	0	---	0.00	29.887 
22:55	63.1	63.1	63.1	96	61.9	0	0	---	0.00	29.884 
23:00	62.9	62.9	62.9	96	61.7	0	0	---	0.00	29.883 
23:05	62.7	62.7	62.7	96	61.5	0	0	---	0.00	29.884 
23:10	62.4	62.4	62.4	96	61.2	0	0	---	0.00	29.885 
23:15	62.3	62.3	62.3	96	61.1	0	0	---	0.00	29.885 
23:20	62.0	62.0	62.0	96	60.8	0	0	---	0.00	29.885 
23:25	61.8	61.8	61.8	96	60.6	0	0	---	0.00	29.884 
23:30	61.5	61.5	61.5	96	60.3	0	0	---	0.00	29.884 
23:35	61.3	61.3	61.3	96	60.1	0	0	---	0.00	29.887 
23:40	61.2	61.2	61.2	96	60.0	0	0	---	0.00	29.887 
23:45	61.0	61.0	61.0	96	59.8	0	0	---	0.00	29.887 
23:50	60.9	60.9	60.9	96	59.7	0	0	---	0.00	29.888 
23:55	60.7	60.7	60.7	96	59.6	0	0	---	0.00	29.888 

CoCoRaHS
IN-AL-39
A2 Web Hosting
Creative Commons License
GoDaddy
Look for:

loaded 2017-10-19 14:13:28 • last modified 2010-11-18 10:43:29
Privacy PolicyDisclaimer
• wx.awcolley.com is powered by PmWiki v.2002016 •
• all content (unless otherwise noted) © 2017 A W Colley